Time;durP1;ratioP1;P1;durP2;ratioP2;P2;SDS_P1;SDS_P2;PMS_P1;PMS_P2;Temp;Humidity;BMP_temperature;BMP_pressure;BME280_temperature;BME280_humidity;BME280_pressure;Samples;Min_cycle;Max_cycle;Signal;HPM_P1;HPM_P2
2023/07/18 00:00:32;;;;;;;6.85;4.75;;;22.40;99.90;;;;;;5057563;28;20039;-78
2023/07/18 00:02:59;;;;;;;6.88;5.07;;;22.30;99.90;;;;;;5039453;28;20029;-79
2023/07/18 00:05:25;;;;;;;7.82;5.55;;;22.30;99.90;;;;;;5030630;28;20370;-78
2023/07/18 00:07:51;;;;;;;7.78;5.32;;;22.20;99.90;;;;;;5039324;28;20036;-79
2023/07/18 00:10:19;;;;;;;10.63;5.40;;;22.20;99.90;;;;;;5039613;28;20086;-79
2023/07/18 00:12:45;;;;;;;8.90;5.13;;;22.10;99.90;;;;;;5056869;28;20106;-79
2023/07/18 00:15:12;;;;;;;6.55;4.80;;;22.20;99.90;;;;;;5057148;28;20074;-78
2023/07/18 00:17:39;;;;;;;10.82;5.57;;;22.10;99.90;;;;;;5057195;28;20021;-78
2023/07/18 00:20:09;;;;;;;8.07;5.18;;;22.10;99.90;;;;;;5057260;28;20017;-80
2023/07/18 00:22:35;;;;;;;8.43;5.30;;;22.00;99.90;;;;;;5056917;28;20021;-79
2023/07/18 00:25:01;;;;;;;7.43;4.68;;;22.00;99.90;;;;;;5057286;28;20377;-79
2023/07/18 00:27:28;;;;;;;8.45;5.32;;;22.00;99.90;;;;;;5038799;28;20121;-79
2023/07/18 00:29:55;;;;;;;8.80;5.57;;;21.90;99.90;;;;;;5039186;28;20031;-79
2023/07/18 00:32:22;;;;;;;8.65;5.35;;;21.90;99.90;;;;;;5056773;28;20024;-79
2023/07/18 00:34:49;;;;;;;7.07;5.57;;;21.90;99.90;;;;;;5057178;28;20028;-79
2023/07/18 00:37:15;;;;;;;7.10;5.55;;;21.90;99.90;;;;;;5056824;28;20485;-78
2023/07/18 00:39:41;;;;;;;6.90;5.38;;;21.80;99.90;;;;;;5039058;28;20381;-78
2023/07/18 00:42:07;;;;;;;6.68;5.00;;;21.80;99.90;;;;;;5056658;28;20057;-79
2023/07/18 00:44:33;;;;;;;9.45;5.18;;;21.80;99.90;;;;;;5056750;28;20059;-78
2023/07/18 00:46:58;;;;;;;5.38;4.57;;;21.70;99.90;;;;;;5056708;28;20496;-79
2023/07/18 00:49:25;;;;;;;10.35;4.93;;;21.60;99.90;;;;;;5056956;28;20048;-79
2023/07/18 00:51:51;;;;;;;9.13;5.40;;;21.60;99.90;;;;;;5056793;28;20033;-79
2023/07/18 00:54:17;;;;;;;8.20;5.30;;;21.60;99.90;;;;;;5056976;28;20043;-79
2023/07/18 00:56:43;;;;;;;10.18;6.13;;;21.50;99.90;;;;;;5038559;28;20040;-79
2023/07/18 00:59:13;;;;;;;10.60;5.50;;;21.50;99.90;;;;;;5056538;28;20124;-79
2023/07/18 01:01:39;;;;;;;7.90;5.13;;;21.50;99.90;;;;;;5040114;28;20037;-79
2023/07/18 01:04:05;;;;;;;8.48;5.13;;;21.50;99.90;;;;;;5061098;28;20020;-79
2023/07/18 01:06:31;;;;;;;9.00;5.07;;;21.50;99.90;;;;;;5042738;28;20032;-79
2023/07/18 01:08:57;;;;;;;7.13;4.90;;;21.50;99.90;;;;;;5060797;28;20100;-78
2023/07/18 01:11:22;;;;;;;8.43;5.53;;;21.50;99.90;;;;;;5060425;28;20025;-78
2023/07/18 01:13:48;;;;;;;8.00;5.53;;;21.40;99.90;;;;;;5042464;28;20057;-79
2023/07/18 01:16:14;;;;;;;9.02;5.35;;;21.40;99.90;;;;;;5060420;28;20044;-78
2023/07/18 01:18:40;;;;;;;9.35;5.60;;;21.40;99.90;;;;;;5042727;28;20048;-79
2023/07/18 01:21:09;;;;;;;9.90;5.47;;;21.30;99.90;;;;;;5060233;28;20017;-79
2023/07/18 01:23:35;;;;;;;9.40;5.45;;;21.30;99.90;;;;;;5060533;28;20079;-79
2023/07/18 01:26:01;;;;;;;7.25;5.05;;;21.30;99.90;;;;;;5060408;28;20021;-79
2023/07/18 01:28:26;;;;;;;9.75;5.35;;;21.30;99.90;;;;;;5042253;28;20499;-79
2023/07/18 01:30:52;;;;;;;9.32;6.05;;;21.30;99.90;;;;;;5060493;28;20036;-79
2023/07/18 01:33:17;;;;;;;9.75;6.13;;;21.20;99.90;;;;;;5060412;28;20388;-79
2023/07/18 01:35:43;;;;;;;7.70;5.20;;;21.20;99.90;;;;;;5060157;28;20767;-78
2023/07/18 01:38:09;;;;;;;6.10;5.05;;;21.10;99.90;;;;;;5060493;28;20088;-79
2023/07/18 01:40:35;;;;;;;11.95;5.22;;;21.10;99.90;;;;;;5060130;28;20443;-78
2023/07/18 01:43:00;;;;;;;9.20;6.30;;;21.10;99.90;;;;;;5060072;28;20440;-78
2023/07/18 01:45:27;;;;;;;11.52;5.95;;;21.00;99.90;;;;;;5059875;28;20059;-78
2023/07/18 01:47:54;;;;;;;11.18;5.30;;;21.00;99.90;;;;;;5042242;28;20477;-79
2023/07/18 01:50:20;;;;;;;13.10;6.07;;;20.90;99.90;;;;;;5059925;28;20081;-79
2023/07/18 01:52:46;;;;;;;10.20;5.65;;;20.90;99.90;;;;;;5060137;28;20453;-78
2023/07/18 01:55:12;;;;;;;7.75;5.50;;;20.80;99.90;;;;;;5041825;28;20021;-79
2023/07/18 01:57:38;;;;;;;9.65;5.78;;;20.80;99.90;;;;;;5059683;28;20384;-79
2023/07/18 02:00:05;;;;;;;11.15;5.90;;;20.80;99.90;;;;;;5041753;28;20048;-79
2023/07/18 02:02:31;;;;;;;9.60;6.32;;;20.70;99.90;;;;;;5059974;28;20027;-79
2023/07/18 02:04:58;;;;;;;9.82;6.25;;;20.70;99.90;;;;;;5059619;28;20048;-79
2023/07/18 02:07:25;;;;;;;10.90;5.75;;;20.70;99.90;;;;;;5041747;28;20092;-79
2023/07/18 02:09:51;;;;;;;9.05;6.07;;;20.70;99.90;;;;;;5041774;28;20538;-79
2023/07/18 02:12:17;;;;;;;9.23;6.40;;;20.60;99.90;;;;;;5041237;28;20025;-79
2023/07/18 02:14:43;;;;;;;9.43;6.20;;;20.60;99.90;;;;;;5059084;28;20120;-79
2023/07/18 02:17:08;;;;;;;9.45;5.65;;;20.60;99.90;;;;;;5041533;28;20025;-79
2023/07/18 02:19:37;;;;;;;10.68;6.53;;;20.50;99.90;;;;;;5059252;28;20029;-79
2023/07/18 02:22:03;;;;;;;10.18;6.45;;;20.50;99.90;;;;;;5059174;28;20021;-79
2023/07/18 02:24:29;;;;;;;11.63;6.32;;;20.50;99.90;;;;;;5059353;28;20021;-78
2023/07/18 02:26:55;;;;;;;10.23;6.32;;;20.40;99.90;;;;;;5059376;28;20033;-78
2023/07/18 02:29:21;;;;;;;9.25;5.68;;;20.40;99.90;;;;;;5040944;28;20036;-78
2023/07/18 02:31:47;;;;;;;10.40;5.22;;;20.40;99.90;;;;;;5059233;28;20103;-78
2023/07/18 02:34:13;;;;;;;10.45;6.65;;;20.40;99.90;;;;;;5058972;28;20481;-78
2023/07/18 02:36:39;;;;;;;10.02;5.55;;;20.40;99.90;;;;;;5041051;28;20051;-79
2023/07/18 02:39:07;;;;;;;9.63;5.72;;;20.40;99.90;;;;;;5041135;28;20025;-79
2023/07/18 02:41:34;;;;;;;10.00;5.68;;;20.40;99.90;;;;;;5059223;28;20096;-78
2023/07/18 02:44:00;;;;;;;8.93;6.20;;;20.40;99.90;;;;;;5058742;28;20148;-79
2023/07/18 02:46:25;;;;;;;14.75;6.68;;;20.40;99.90;;;;;;5058984;28;20064;-78
2023/07/18 02:48:51;;;;;;;10.48;5.85;;;20.40;99.90;;;;;;5041032;28;20016;-79
2023/07/18 02:51:16;;;;;;;9.68;5.47;;;20.30;99.90;;;;;;5058899;28;20025;-78
2023/07/18 02:53:43;;;;;;;9.90;5.80;;;20.30;99.90;;;;;;5058710;28;20048;-78
2023/07/18 02:56:08;;;;;;;8.95;5.93;;;20.30;99.90;;;;;;5058753;28;20500;-79
2023/07/18 02:58:35;;;;;;;12.13;6.65;;;20.20;99.90;;;;;;5058447;28;20116;-79
2023/07/18 03:01:01;;;;;;;8.50;5.63;;;20.20;99.90;;;;;;5040389;28;20075;-78
2023/07/18 03:03:27;;;;;;;11.32;5.97;;;20.20;99.90;;;;;;5058461;28;20469;-79
2023/07/18 03:05:54;;;;;;;10.95;6.40;;;20.10;99.90;;;;;;5040003;28;20365;-79
2023/07/18 03:08:19;;;;;;;7.75;5.72;;;20.00;99.90;;;;;;5057948;28;20025;-79
2023/07/18 03:10:46;;;;;;;14.00;5.78;;;20.00;99.90;;;;;;5058300;28;20132;-79
2023/07/18 03:13:12;;;;;;;8.60;6.03;;;20.00;99.90;;;;;;5058080;28;20033;-78
2023/07/18 03:15:39;;;;;;;8.02;5.57;;;20.00;99.90;;;;;;5058111;28;20029;-79
2023/07/18 03:18:06;;;;;;;10.18;5.82;;;20.00;99.90;;;;;;5058318;28;20097;-78
2023/07/18 03:20:32;;;;;;;10.60;5.90;;;20.00;99.90;;;;;;5040210;28;20024;-79
2023/07/18 03:22:57;;;;;;;9.75;6.03;;;19.90;99.90;;;;;;5040293;28;20017;-78
2023/07/18 03:25:23;;;;;;;9.43;6.20;;;19.90;99.90;;;;;;5039738;28;20112;-79
2023/07/18 03:27:49;;;;;;;10.23;6.18;;;19.90;99.90;;;;;;5057947;28;20053;-78
2023/07/18 03:30:16;;;;;;;11.73;5.85;;;19.80;99.90;;;;;;5058257;28;20024;-79
2023/07/18 03:32:42;;;;;;;10.02;6.72;;;19.70;99.90;;;;;;5057872;28;20028;-79
2023/07/18 03:35:09;;;;;;;8.32;6.45;;;19.70;99.90;;;;;;5040046;28;20087;-78
2023/07/18 03:37:35;;;;;;;13.05;7.40;;;19.60;99.90;;;;;;5039966;28;20669;-78
2023/07/18 03:40:04;;;;;;;8.07;6.03;;;19.60;99.90;;;;;;5040013;28;20025;-78
2023/07/18 03:42:29;;;;;;;9.57;5.45;;;19.60;99.90;;;;;;5057672;28;20028;-78
2023/07/18 03:44:55;;;;;;;10.25;6.18;;;19.60;99.90;;;;;;5057838;28;20492;-78
2023/07/18 03:47:21;;;;;;;10.63;6.25;;;19.60;99.90;;;;;;5057625;28;20508;-78
2023/07/18 03:49:46;;;;;;;9.48;6.22;;;19.50;99.90;;;;;;5039795;28;20025;-78
2023/07/18 03:52:12;;;;;;;9.60;6.55;;;19.60;99.90;;;;;;5039578;28;20092;-78
2023/07/18 03:54:38;;;;;;;14.15;6.63;;;19.50;99.90;;;;;;5057701;28;20035;-78
2023/07/18 03:57:04;;;;;;;9.73;6.45;;;19.40;99.90;;;;;;5039411;28;20471;-78
2023/07/18 03:59:30;;;;;;;8.65;6.72;;;19.40;99.90;;;;;;5057619;28;20537;-79
2023/07/18 04:01:55;;;;;;;10.60;6.68;;;19.40;99.90;;;;;;5039596;28;20043;-78
2023/07/18 04:04:21;;;;;;;12.98;6.57;;;19.40;99.90;;;;;;5057640;28;20025;-78
2023/07/18 04:06:47;;;;;;;10.27;6.15;;;19.40;99.90;;;;;;5039480;28;20036;-78
2023/07/18 04:09:12;;;;;;;12.20;6.82;;;19.40;99.90;;;;;;5057389;28;20036;-78
2023/07/18 04:11:41;;;;;;;10.07;6.03;;;19.40;99.90;;;;;;5039390;28;20021;-78
2023/07/18 04:14:06;;;;;;;10.20;6.68;;;19.40;99.90;;;;;;5039052;28;20060;-78
2023/07/18 04:16:33;;;;;;;13.73;6.95;;;19.40;99.90;;;;;;5039324;28;20013;-78
2023/07/18 04:18:58;;;;;;;8.15;6.10;;;19.40;99.90;;;;;;5057232;28;20029;-78
2023/07/18 04:21:24;;;;;;;8.52;5.80;;;19.40;99.90;;;;;;5039005;28;20052;-78
2023/07/18 04:23:50;;;;;;;13.35;7.38;;;19.40;99.90;;;;;;5057257;28;20444;-77
2023/07/18 04:26:15;;;;;;;11.55;6.85;;;19.40;99.90;;;;;;5057132;28;20037;-77
2023/07/18 04:28:41;;;;;;;12.40;7.05;;;19.50;99.90;;;;;;5056841;28;20446;-77
2023/07/18 04:31:07;;;;;;;8.60;6.15;;;19.50;99.90;;;;;;5056904;28;20537;-77
2023/07/18 04:33:37;;;;;;;10.32;6.75;;;19.50;99.90;;;;;;5039234;28;20108;-76
2023/07/18 04:36:04;;;;;;;10.98;6.72;;;19.50;99.90;;;;;;5055973;28;20028;-76
2023/07/18 04:38:30;;;;;;;8.20;6.40;;;19.60;99.90;;;;;;5057127;28;20025;-76
2023/07/18 04:40:56;;;;;;;8.55;6.78;;;19.60;99.90;;;;;;5056834;28;20047;-77
2023/07/18 04:43:22;;;;;;;9.68;6.50;;;19.60;99.90;;;;;;5056679;28;20060;-77
2023/07/18 04:45:49;;;;;;;10.18;6.28;;;19.60;99.90;;;;;;5056705;28;20071;-77
2023/07/18 04:48:16;;;;;;;10.48;7.03;;;19.60;99.90;;;;;;5057042;28;20029;-78
2023/07/18 04:50:43;;;;;;;11.88;6.65;;;19.60;99.90;;;;;;5056593;28;20362;-79
2023/07/18 04:53:10;;;;;;;10.73;6.78;;;19.60;99.90;;;;;;5038887;28;20027;-77
2023/07/18 04:55:36;;;;;;;7.70;5.85;;;19.60;99.90;;;;;;5056802;28;20013;-78
2023/07/18 04:58:07;;;;;;;11.35;7.07;;;19.70;99.90;;;;;;5056585;28;20035;-77
2023/07/18 05:00:34;;;;;;;10.32;6.78;;;19.60;99.90;;;;;;5028917;28;20022;-79
2023/07/18 05:03:00;;;;;;;10.05;6.82;;;19.70;99.90;;;;;;5056703;28;20050;-79
2023/07/18 05:05:27;;;;;;;12.23;6.40;;;19.70;99.90;;;;;;5056775;28;20021;-78
2023/07/18 05:07:58;;;;;;;9.38;7.07;;;19.80;99.90;;;;;;5056555;28;20496;-78
2023/07/18 05:10:24;;;;;;;10.88;6.22;;;19.80;99.90;;;;;;5038903;28;20032;-80
2023/07/18 05:12:54;;;;;;;9.35;6.55;;;19.90;99.90;;;;;;5056299;28;20060;-79
2023/07/18 05:15:20;;;;;;;8.87;6.70;;;20.10;99.90;;;;;;5038723;28;20064;-78
2023/07/18 05:17:47;;;;;;;10.80;6.47;;;20.20;99.90;;;;;;5056379;28;20456;-78
2023/07/18 05:20:13;;;;;;;11.50;5.90;;;20.40;99.90;;;;;;5038678;28;20025;-77
2023/07/18 05:22:45;;;;;;;8.85;5.38;;;20.60;99.90;;;;;;5038395;28;20025;-78
2023/07/18 05:25:14;;;;;;;10.77;5.68;;;20.90;99.90;;;;;;5038597;28;20021;-81
2023/07/18 05:27:40;;;;;;;9.15;5.85;;;21.20;99.90;;;;;;5056270;28;20018;-81
2023/07/18 05:30:14;;;;;;;11.02;5.60;;;21.50;99.90;;;;;;5056569;28;20025;-82
2023/07/18 05:32:41;;;;;;;10.60;5.07;;;21.80;99.90;;;;;;5038599;28;20035;-86
2023/07/18 05:35:10;;;;;;;9.70;5.70;;;21.90;99.90;;;;;;5038654;28;20036;-83
2023/07/18 05:37:36;;;;;;;8.85;4.85;;;22.00;99.90;;;;;;5038598;28;20040;-78
2023/07/18 05:40:03;;;;;;;7.30;5.10;;;22.10;99.90;;;;;;5038624;28;20388;-79
2023/07/18 05:42:29;;;;;;;10.40;5.10;;;22.10;99.90;;;;;;5056123;28;20376;-80
2023/07/18 05:44:55;;;;;;;8.95;5.32;;;22.10;99.90;;;;;;5056248;28;20029;-78
2023/07/18 05:47:20;;;;;;;7.88;4.75;;;22.10;99.90;;;;;;5057245;28;20384;-81
2023/07/18 05:49:46;;;;;;;7.07;4.65;;;22.20;99.90;;;;;;5060088;28;20059;-79
2023/07/18 05:52:12;;;;;;;8.48;4.97;;;22.30;99.90;;;;;;5042243;28;20025;-81
2023/07/18 05:54:37;;;;;;;6.72;4.70;;;22.40;99.90;;;;;;5042083;28;20090;-86
2023/07/18 05:57:03;;;;;;;7.82;4.70;;;22.50;99.90;;;;;;5059754;28;20021;-80
2023/07/18 05:59:30;;;;;;;9.55;5.07;;;22.70;99.90;;;;;;5041702;28;20031;-78
2023/07/18 06:01:56;;;;;;;8.48;5.57;;;22.90;99.90;;;;;;5042279;28;20519;-80
2023/07/18 06:04:22;;;;;;;6.18;4.43;;;23.10;99.90;;;;;;5060003;28;20028;-83
2023/07/18 06:06:47;;;;;;;8.77;4.45;;;23.30;99.90;;;;;;5059573;28;20025;-78
2023/07/18 06:09:13;;;;;;;7.28;5.15;;;23.50;99.90;;;;;;5041662;28;20063;-83
2023/07/18 06:11:39;;;;;;;6.95;4.45;;;23.70;99.90;;;;;;5041483;28;20017;-84
2023/07/18 06:14:07;;;;;;;10.15;4.43;;;23.70;99.90;;;;;;5059211;28;20045;-80
2023/07/18 06:16:33;;;;;;;9.32;4.80;;;23.90;99.90;;;;;;5059586;28;20083;-77
2023/07/18 06:18:59;;;;;;;8.25;4.63;;;24.00;99.90;;;;;;5059558;28;20059;-79
2023/07/18 06:21:26;;;;;;;8.68;4.65;;;24.20;99.90;;;;;;5059174;28;20040;-83
2023/07/18 06:23:55;;;;;;;10.18;5.22;;;24.20;99.90;;;;;;5059441;28;20025;-80
2023/07/18 06:26:21;;;;;;;11.38;5.30;;;24.40;99.90;;;;;;5059555;28;20029;-83
2023/07/18 06:28:47;;;;;;;7.57;5.22;;;24.50;99.90;;;;;;5041011;28;20021;-81
2023/07/18 06:31:14;;;;;;;8.77;5.05;;;24.60;99.90;;;;;;5059381;28;20027;-80
2023/07/18 06:33:40;;;;;;;11.05;4.88;;;24.60;99.90;;;;;;5041219;28;20483;-81
2023/07/18 06:36:06;;;;;;;8.38;4.70;;;24.60;99.90;;;;;;5059129;28;20017;-77
2023/07/18 06:38:32;;;;;;;9.93;4.55;;;24.70;99.90;;;;;;5041096;28;20029;-81
2023/07/18 06:40:57;;;;;;;11.75;5.05;;;24.80;99.90;;;;;;5058960;28;20473;-81
2023/07/18 06:43:24;;;;;;;8.98;5.03;;;24.80;99.90;;;;;;5058799;28;20040;-80
2023/07/18 06:45:50;;;;;;;7.50;5.00;;;24.90;99.90;;;;;;5058764;28;20098;-78
2023/07/18 06:48:17;;;;;;;10.52;5.20;;;25.00;99.90;;;;;;5059466;28;20021;-77
2023/07/18 06:50:48;;;;;;;9.45;5.20;;;25.10;99.90;;;;;;5058724;28;20110;-75
2023/07/18 06:53:17;;;;;;;6.10;4.40;;;25.10;99.90;;;;;;5040739;28;20092;-76
2023/07/18 06:55:42;;;;;;;13.60;4.75;;;25.30;99.90;;;;;;5058847;28;20447;-81
2023/07/18 06:58:11;;;;;;;12.80;4.90;;;25.30;99.90;;;;;;5040130;28;20032;-78
2023/07/18 07:00:38;;;;;;;9.45;4.10;;;25.50;99.90;;;;;;5057911;28;20056;-79
2023/07/18 07:03:03;;;;;;;8.65;4.43;;;25.50;99.90;;;;;;5058559;28;20029;-81
2023/07/18 07:05:29;;;;;;;9.02;3.80;;;25.60;99.90;;;;;;5035854;28;20040;-77
2023/07/18 07:07:54;;;;;;;12.35;4.38;;;25.70;99.90;;;;;;5058406;28;20047;-81
2023/07/18 07:10:20;;;;;;;9.65;4.18;;;25.70;99.90;;;;;;5058289;28;20055;-78
2023/07/18 07:12:47;;;;;;;6.97;4.28;;;25.90;99.90;;;;;;5038647;28;20033;-79
2023/07/18 07:15:13;;;;;;;6.85;4.25;;;26.00;99.90;;;;;;5049750;28;20040;-81
2023/07/18 07:17:39;;;;;;;9.02;4.65;;;26.20;99.90;;;;;;5058157;28;20025;-79
2023/07/18 07:20:14;;;;;;;7.88;4.22;;;26.30;99.90;;;;;;5031041;28;20018;-78
2023/07/18 07:22:43;;;;;;;10.43;4.22;;;26.30;99.90;;;;;;5057204;28;20025;-77
2023/07/18 07:25:13;;;;;;;12.80;4.40;;;26.40;99.90;;;;;;5058247;28;20018;-76
2023/07/18 07:27:39;;;;;;;7.20;3.72;;;26.40;99.90;;;;;;5055378;28;20027;-78
2023/07/18 07:30:06;;;;;;;5.55;3.85;;;26.40;99.90;;;;;;5058191;28;20082;-76
2023/07/18 07:32:32;;;;;;;5.75;3.55;;;26.50;99.90;;;;;;5057964;28;20082;-78
2023/07/18 07:34:58;;;;;;;9.38;4.30;;;26.70;99.90;;;;;;5058005;28;20103;-77
2023/07/18 07:37:23;;;;;;;10.45;4.60;;;26.80;99.90;;;;;;5057935;28;20497;-78
2023/07/18 07:39:49;;;;;;;7.72;3.80;;;26.80;99.90;;;;;;5039936;28;20428;-75
2023/07/18 07:42:15;;;;;;;10.60;4.30;;;26.80;99.90;;;;;;5057628;28;20027;-77
2023/07/18 07:44:41;;;;;;;9.20;3.90;;;26.90;99.90;;;;;;5039824;28;20044;-78
2023/07/18 07:47:06;;;;;;;6.50;4.15;;;27.00;99.90;;;;;;5057656;28;20025;-78
2023/07/18 07:49:32;;;;;;;5.30;3.60;;;27.20;99.90;;;;;;5057791;28;20021;-76
2023/07/18 07:51:58;;;;;;;7.88;4.03;;;27.30;99.90;;;;;;5057484;28;20048;-77
2023/07/18 07:54:23;;;;;;;8.30;4.15;;;27.30;99.90;;;;;;5026640;28;20025;-78
2023/07/18 07:56:49;;;;;;;10.30;3.83;;;27.40;99.90;;;;;;5034628;28;20029;-79
2023/07/18 07:59:14;;;;;;;10.32;3.65;;;27.50;99.90;;;;;;5037296;28;20028;-76
2023/07/18 08:01:40;;;;;;;5.95;3.42;;;27.60;99.90;;;;;;5055724;28;20025;-76
2023/07/18 08:04:08;;;;;;;9.23;4.18;;;27.60;99.90;;;;;;5053977;28;20397;-75
2023/07/18 08:06:33;;;;;;;9.00;3.85;;;27.70;99.90;;;;;;5054001;28;20047;-75
2023/07/18 08:08:59;;;;;;;6.55;3.90;;;27.70;99.90;;;;;;5055583;28;20017;-75
2023/07/18 08:11:25;;;;;;;8.15;4.00;;;27.90;99.90;;;;;;5037343;28;20035;-76
2023/07/18 08:13:53;;;;;;;9.77;3.70;;;28.00;99.90;;;;;;5069070;28;20041;-75
2023/07/18 08:16:18;;;;;;;10.40;3.60;;;28.00;99.90;;;;;;5054082;28;20063;-74
2023/07/18 08:18:44;;;;;;;7.88;3.83;;;28.00;99.90;;;;;;5051248;28;20013;-76
2023/07/18 08:21:10;;;;;;;8.82;3.72;;;28.00;99.90;;;;;;5027917;28;20029;-75
2023/07/18 08:23:35;;;;;;;9.02;3.70;;;28.20;99.90;;;;;;5048515;28;20045;-76
2023/07/18 08:26:01;;;;;;;6.85;3.58;;;28.40;99.90;;;;;;5052825;28;20078;-75
2023/07/18 08:28:27;;;;;;;7.43;4.32;;;28.40;99.90;;;;;;5034694;28;20064;-74
2023/07/18 08:30:52;;;;;;;8.90;3.90;;;28.50;99.90;;;;;;5051562;28;20025;-75
2023/07/18 08:33:19;;;;;;;14.77;3.83;;;28.40;99.90;;;;;;5055749;28;20021;-74
2023/07/18 08:35:45;;;;;;;7.13;3.83;;;28.40;99.90;;;;;;5054142;28;20417;-74
2023/07/18 08:38:11;;;;;;;6.88;3.53;;;28.50;99.90;;;;;;5054903;28;20140;-73
2023/07/18 08:40:42;;;;;;;7.25;3.58;;;28.50;99.90;;;;;;5036438;28;20029;-77
2023/07/18 08:43:13;;;;;;;8.05;3.67;;;28.50;99.90;;;;;;5054881;28;20032;-75
2023/07/18 08:45:40;;;;;;;14.50;4.60;;;28.60;99.90;;;;;;5036849;28;20029;-74
2023/07/18 08:48:06;;;;;;;12.07;3.88;;;28.60;99.90;;;;;;5050256;28;20061;-76
2023/07/18 08:50:33;;;;;;;11.55;3.88;;;28.60;99.90;;;;;;5051755;28;20028;-75
2023/07/18 08:52:59;;;;;;;7.72;3.78;;;28.70;99.90;;;;;;5055036;28;20388;-74
2023/07/18 08:55:29;;;;;;;7.18;3.45;;;28.80;99.90;;;;;;5055527;28;20017;-73
2023/07/18 08:57:55;;;;;;;9.05;3.65;;;28.90;99.90;;;;;;5036848;28;20028;-79
2023/07/18 09:00:21;;;;;;;7.22;3.58;;;28.90;99.90;;;;;;5055441;28;20107;-79
2023/07/18 09:02:50;;;;;;;7.45;3.10;;;29.00;99.90;;;;;;5054068;28;20025;-75
2023/07/18 09:05:34;;;;;;;13.07;4.17;;;29.20;99.90;;;;;;5051405;28;20063;-75
2023/07/18 09:08:02;;;;;;;10.43;4.18;;;29.30;99.90;;;;;;5062075;28;20017;-76
2023/07/18 09:10:28;;;;;;;10.55;3.90;;;29.40;99.90;;;;;;5035647;28;20405;-76
2023/07/18 09:12:58;;;;;;;19.75;5.15;;;29.60;99.90;;;;;;5054037;28;20010;-76
2023/07/18 09:15:24;;;;;;;8.30;3.65;;;29.50;99.90;;;;;;5055052;28;20497;-76
2023/07/18 09:17:58;;;;;;;8.73;3.83;;;29.60;99.90;;;;;;5036975;28;20071;-75
2023/07/18 09:20:26;;;;;;;7.93;3.67;;;29.80;99.90;;;;;;5051997;28;20032;-76
2023/07/18 09:22:56;;;;;;;7.07;3.35;;;29.80;99.90;;;;;;5054877;28;20066;-76
2023/07/18 09:25:23;;;;;;;8.52;3.70;;;29.90;99.90;;;;;;5058757;28;20362;-75
2023/07/18 09:27:53;;;;;;;6.47;3.70;;;30.00;99.90;;;;;;5058732;28;20366;-76
2023/07/18 09:30:33;;;;;;;9.95;3.88;;;30.00;99.90;;;;;;5055299;28;20029;-77
2023/07/18 09:33:02;;;;;;;;;;;30.10;99.90;;;;;;5038732;28;20106;-77
2023/07/18 09:35:27;;;;;;;6.50;3.28;;;30.20;99.90;;;;;;5054702;28;19909;-77
2023/07/18 09:37:53;;;;;;;10.15;2.97;;;30.30;99.90;;;;;;5040734;28;20028;-76
2023/07/18 09:40:19;;;;;;;9.38;4.00;;;30.30;99.90;;;;;;5059021;28;20397;-75
2023/07/18 09:42:47;;;;;;;8.65;4.15;;;30.40;99.90;;;;;;5052566;28;20058;-76
2023/07/18 09:45:14;;;;;;;10.02;3.45;;;30.40;99.90;;;;;;5053607;28;20033;-75
2023/07/18 09:47:41;;;;;;;9.48;3.42;;;30.60;99.90;;;;;;5056543;28;20024;-75
2023/07/18 09:50:12;;;;;;;8.38;3.83;;;30.60;99.90;;;;;;5037174;28;20021;-75
2023/07/18 09:52:46;;;;;;;6.35;3.55;;;30.60;99.90;;;;;;5053990;28;20473;-76
2023/07/18 09:55:14;;;;;;;9.65;3.58;;;30.70;99.90;;;;;;5038386;28;20036;-76
2023/07/18 09:57:41;;;;;;;6.68;3.67;;;30.70;99.90;;;;;;5038152;28;20032;-77
2023/07/18 10:00:11;;;;;;;8.25;3.63;;;30.80;99.90;;;;;;5058330;28;20614;-75
2023/07/18 10:02:38;;;;;;;8.82;3.47;;;31.00;99.90;;;;;;5057548;28;20381;-78
2023/07/18 10:05:05;;;;;;;8.45;3.40;;;31.10;99.90;;;;;;5040191;28;20021;-76
2023/07/18 10:07:34;;;;;;;8.95;3.10;;;31.20;99.90;;;;;;5054161;28;20037;-76
2023/07/18 10:10:07;;;;;;;6.67;3.90;;;31.20;99.90;;;;;;5057990;28;20089;-77
2023/07/18 10:12:54;;;;;;;6.13;3.22;;;31.30;99.90;;;;;;5057098;28;20260;-76
2023/07/18 10:15:21;;;;;;;6.40;3.33;;;31.40;99.90;;;;;;5059232;28;20063;-75
2023/07/18 10:17:47;;;;;;;8.23;3.28;;;31.40;99.90;;;;;;5059279;28;20025;-75
2023/07/18 10:20:23;;;;;;;8.30;3.47;;;31.50;99.90;;;;;;5059344;28;20384;-77
2023/07/18 10:22:59;;;;;;;8.98;3.55;;;31.50;99.90;;;;;;5051827;28;20024;-75
2023/07/18 10:25:31;;;;;;;11.55;3.30;;;31.50;99.90;;;;;;5054698;28;20033;-77
2023/07/18 10:27:59;;;;;;;8.13;3.22;;;31.70;99.90;;;;;;5058508;28;20039;-77
2023/07/18 10:30:42;;;;;;;7.60;3.25;;;31.70;99.90;;;;;;5041207;28;20116;-76
2023/07/18 10:33:08;;;;;;;6.05;3.20;;;31.80;99.90;;;;;;5041096;28;20100;-77
2023/07/18 10:35:39;;;;;;;10.98;3.80;;;31.90;99.90;;;;;;5059056;28;20017;-77
2023/07/18 10:38:06;;;;;;;7.28;3.22;;;31.90;99.90;;;;;;5059295;28;20025;-77
2023/07/18 10:40:40;;;;;;;8.38;3.20;;;31.90;99.90;;;;;;5058855;28;20041;-77
2023/07/18 10:43:11;;;;;;;14.85;3.40;;;32.10;99.90;;;;;;5058654;28;20044;-75
2023/07/18 10:45:43;;;;;;;;;;;32.10;99.90;;;;;;5041269;28;20591;-76
2023/07/18 10:48:19;;;;;;;6.38;3.13;;;32.10;99.90;;;;;;5059011;28;19932;-76
2023/07/18 10:50:47;;;;;;;8.88;3.10;;;32.20;99.90;;;;;;5041005;28;20013;-77
2023/07/18 10:53:18;;;;;;;6.60;2.92;;;32.20;99.90;;;;;;5058801;28;20017;-76
2023/07/18 10:55:45;;;;;;;9.27;4.03;;;32.30;99.90;;;;;;5050379;28;20020;-76
2023/07/18 10:58:16;;;;;;;5.93;3.00;;;32.40;99.90;;;;;;5057459;28;20115;-77
2023/07/18 11:00:42;;;;;;;6.35;3.67;;;32.50;99.90;;;;;;5050980;28;20021;-76
2023/07/18 11:03:30;;;;;;;5.38;3.70;;;32.50;99.90;;;;;;5040619;28;20025;-77
2023/07/18 11:05:55;;;;;;;11.50;3.80;;;32.60;99.90;;;;;;5058293;28;20032;-76
2023/07/18 11:08:28;;;;;;;10.13;3.85;;;32.70;99.60;;;;;;5058363;28;20021;-76
2023/07/18 11:11:00;;;;;;;6.32;3.47;;;32.70;99.60;;;;;;5040419;28;20033;-76
2023/07/18 11:13:34;;;;;;;10.68;3.95;;;32.70;99.50;;;;;;5039855;28;20052;-75
2023/07/18 11:16:11;;;;;;;5.78;3.42;;;32.60;99.00;;;;;;5058218;28;20017;-77
2023/07/18 11:18:40;;;;;;;6.00;3.13;;;32.60;98.40;;;;;;5058175;28;20072;-76
2023/07/18 11:21:07;;;;;;;11.57;3.78;;;32.70;99.90;;;;;;5057398;28;20071;-77
2023/07/18 11:23:34;;;;;;;8.52;3.80;;;32.70;98.90;;;;;;5058035;28;20025;-77
2023/07/18 11:26:06;;;;;;;8.80;3.65;;;33.00;99.50;;;;;;5058228;28;20026;-77
2023/07/18 11:28:33;;;;;;;7.78;3.35;;;33.00;99.60;;;;;;5039667;28;20021;-76
2023/07/18 11:30:59;;;;;;;7.05;3.28;;;33.10;99.80;;;;;;5057937;28;20013;-75
2023/07/18 11:33:29;;;;;;;8.50;3.55;;;33.20;99.60;;;;;;5058040;28;20485;-76
2023/07/18 11:35:56;;;;;;;6.80;3.38;;;33.20;99.20;;;;;;5046029;28;20564;-77
2023/07/18 11:38:24;;;;;;;10.82;3.72;;;33.20;98.20;;;;;;5039816;28;20043;-77
2023/07/18 11:40:50;;;;;;;9.68;3.83;;;33.30;99.20;;;;;;5058002;28;20021;-76
2023/07/18 11:43:19;;;;;;;8.52;4.00;;;33.50;98.60;;;;;;5057557;28;20029;-75
2023/07/18 11:45:46;;;;;;;12.07;3.75;;;33.50;98.80;;;;;;5057350;28;20049;-76
2023/07/18 11:48:12;;;;;;;6.13;2.88;;;33.70;96.50;;;;;;5057629;28;20028;-75
2023/07/18 11:50:43;;;;;;;10.45;3.63;;;33.60;97.70;;;;;;5051743;28;20018;-76
2023/07/18 11:53:09;;;;;;;11.13;3.65;;;33.60;97.90;;;;;;5049156;28;20025;-77
2023/07/18 11:55:34;;;;;;;6.10;3.70;;;33.60;97.40;;;;;;5052087;28;20017;-76
2023/07/18 11:58:00;;;;;;;10.30;3.25;;;33.70;96.80;;;;;;5048135;28;20528;-77
2023/07/18 12:00:27;;;;;;;8.80;3.78;;;33.90;97.30;;;;;;5050952;28;20599;-76
2023/07/18 12:02:52;;;;;;;10.60;3.17;;;33.90;98.20;;;;;;5047863;28;20477;-76
2023/07/18 12:05:18;;;;;;;7.07;3.50;;;34.00;97.30;;;;;;5051665;28;20017;-77
2023/07/18 12:07:45;;;;;;;6.18;3.05;;;34.00;96.30;;;;;;5026321;28;20405;-77
2023/07/18 12:10:11;;;;;;;5.63;3.35;;;34.00;95.50;;;;;;5047233;28;20017;-77
2023/07/18 12:12:40;;;;;;;7.28;3.60;;;34.10;97.20;;;;;;5057033;28;20021;-74
2023/07/18 12:15:07;;;;;;;9.68;3.90;;;34.10;97.90;;;;;;5035024;28;20119;-77
2023/07/18 12:17:33;;;;;;;9.65;4.18;;;34.10;96.40;;;;;;5038902;28;20496;-77
2023/07/18 12:19:59;;;;;;;14.23;3.92;;;34.10;97.30;;;;;;5057187;28;20020;-77
2023/07/18 12:22:25;;;;;;;7.57;3.55;;;34.20;97.60;;;;;;5056732;28;20024;-76
2023/07/18 12:24:50;;;;;;;14.18;4.30;;;34.30;97.00;;;;;;5057047;28;20029;-76
2023/07/18 12:27:16;;;;;;;7.28;3.20;;;34.40;96.80;;;;;;5055500;28;20393;-76
2023/07/18 12:29:42;;;;;;;9.35;4.32;;;34.30;96.80;;;;;;5056732;28;20028;-76
2023/07/18 12:32:11;;;;;;;8.88;3.95;;;34.40;96.90;;;;;;5056922;28;20124;-75
2023/07/18 12:34:39;;;;;;;6.50;3.33;;;34.40;96.40;;;;;;5035595;28;20021;-77
2023/07/18 12:37:05;;;;;;;7.00;3.58;;;34.30;96.70;;;;;;5046253;28;20488;-76
2023/07/18 12:39:31;;;;;;;7.63;3.75;;;34.30;96.50;;;;;;5057034;28;20061;-77
2023/07/18 12:41:57;;;;;;;8.57;3.58;;;34.50;97.90;;;;;;5045797;28;20036;-77